Aérodrome :
LOGIN :

S'inscrire | Disclaimer

   EN    FR    IT 

 










Légende :    VFR   VFR Marginal   IFR   IFR Intensif   IFR Très Intensif
Visi : 
Plafond : 
>= 8 km
>= 3000ft
5 à 8 km
1000 à 3000 ft
1500m à 5 km
500 à 1000 ft
800 à 1500m
200 à 500 ft
< 800m
< 200 ft
Symboles :   Orages  Brouillard  Fortes neiges  Fortes précipitations  Vent > 20 kt
SIGMETs :   Divers  Orages  Givrage  Turbulence  Onde Orograph.  Cendres Volcan.






- Altitude de l'aérodrome : 162 ft
- Code IATA : BOD


LFBD - Bordeaux / Merignac

DERNIER METAR :
  • 061500Z AUTO VRB03KT 9999 BKN007 BKN140 OVC170 08/06 Q1021 TEMPO BKN010

METARs EXPIRÉS :
  • 061430Z AUTO 17004KT 140V200 9999 OVC007 08/06 Q1021 TEMPO BKN010
  • 061400Z AUTO 16004KT 9999 OVC007 08/07 Q1021 BECMG BKN010
  • 061330Z AUTO 16004KT 9999 OVC006 08/06 Q1022 BECMG BKN010
  • 061300Z AUTO 17004KT 140V200 9999 OVC005 07/06 Q1022 BECMG BKN010
  • 061230Z AUTO 21003KT 170V240 9999 OVC005 07/06 Q1023 BECMG BKN010

TAF AMD TAF LFBD
Valide du 06 à 14h jusqu'au 07 à 18h UTC


061405Z 0614/0718 20005KT 8000 OVC005 TX12/0712Z TN06/0619Z
TEMPO 0614/0618 9999 BKN010
BECMG 0618/0620 3000 BR BKN003
TEMPO 0700/0710 1500 RADZ OVC002
PROB40
TEMPO 0620/0710 0800 FG VV///
BECMG 0713/0715 9999 NSW OVC030
ATIS : +33 5 57 92 81 04



MET'MAP, la Météo Aéronautique d'un coup d'oeil ! - Copyright ORBIFLY Décembre 2007 - Disclaimer

ORBIFLY MET'MAP TEAM :

Programmation & Développement : Alexandra Zaïnal
Sur une idée originale de : Baudouin d'Aumeries
Assistance à la programmation : Marc-Olivier Méhu
Soutien technique & logistique : Manuel Goepfert

Contact : metmap@orbifly.com




SOURCES & CREDITS :

   NOAA